Terminal Aerodrome Forecast
Issued by NWS

Home | Current Version | Previous Version | Text Only | Print | Product List | Glossary On
Versions: 1 2 3 4 5 6 7 8 9 10 11 12 13 14 15 16 17 18 19
000
FTUS41 KGYX 290619 AAA
TAFPSM
TAF AMD
KPSM 290619Z 2906/3006 04005KT 4SM BR BKN007
      TEMPO 2908/2912 2SM BR OVC003
     FM291400 06008KT P6SM OVC007=

USA.gov is the U.S. government's official web portal to all federal, state and local government web resources and services.